sensor_id;sensor_type;location;lat;lon;timestamp;pressure;altitude;pressure_sealevel;temperature;humidity
70982;BME280;58640;51.320;9.456;2023-03-03T00:02:17;99942.09;;;0.55;91.87
70982;BME280;58640;51.320;9.456;2023-03-03T00:04:43;99935.34;;;0.63;90.96
70982;BME280;58640;51.320;9.456;2023-03-03T00:07:10;99942.84;;;0.57;91.93
70982;BME280;58640;51.320;9.456;2023-03-03T00:09:35;99945.09;;;0.75;90.50
70982;BME280;58640;51.320;9.456;2023-03-03T00:12:01;99940.22;;;0.69;90.62
70982;BME280;58640;51.320;9.456;2023-03-03T00:14:37;99941.53;;;0.50;91.88
70982;BME280;58640;51.320;9.456;2023-03-03T00:17:15;99947.97;;;0.72;91.36
70982;BME280;58640;51.320;9.456;2023-03-03T00:19:43;99955.31;;;0.81;89.78
70982;BME280;58640;51.320;9.456;2023-03-03T00:22:21;99949.13;;;0.68;91.17
70982;BME280;58640;51.320;9.456;2023-03-03T00:24:48;99946.41;;;0.82;90.03
70982;BME280;58640;51.320;9.456;2023-03-03T00:27:28;99952.38;;;0.59;91.68
70982;BME280;58640;51.320;9.456;2023-03-03T00:29:58;99949.53;;;0.62;92.28
70982;BME280;58640;51.320;9.456;2023-03-03T00:32:37;99950.22;;;0.52;91.80
70982;BME280;58640;51.320;9.456;2023-03-03T00:35:30;99958.69;;;0.44;93.49
70982;BME280;58640;51.320;9.456;2023-03-03T00:38:01;99962.47;;;0.40;93.45
70982;BME280;58640;51.320;9.456;2023-03-03T00:40:36;99959.72;;;0.42;92.95
70982;BME280;58640;51.320;9.456;2023-03-03T00:45:54;99956.53;;;0.37;92.32
70982;BME280;58640;51.320;9.456;2023-03-03T00:48:39;99955.63;;;0.50;91.27
70982;BME280;58640;51.320;9.456;2023-03-03T00:51:29;99952.56;;;0.56;91.51
70982;BME280;58640;51.320;9.456;2023-03-03T00:53:56;99951.91;;;0.53;90.85
70982;BME280;58640;51.320;9.456;2023-03-03T00:56:22;99950.19;;;0.39;92.52
70982;BME280;58640;51.320;9.456;2023-03-03T00:58:48;99950.34;;;0.24;93.24
70982;BME280;58640;51.320;9.456;2023-03-03T01:01:15;99953.38;;;0.44;92.60
70982;BME280;58640;51.320;9.456;2023-03-03T01:03:41;99952.03;;;0.51;91.28
70982;BME280;58640;51.320;9.456;2023-03-03T01:06:06;99946.69;;;0.39;91.83
70982;BME280;58640;51.320;9.456;2023-03-03T01:08:32;99936.56;;;0.19;93.06
70982;BME280;58640;51.320;9.456;2023-03-03T01:11:02;99940.41;;;0.27;92.91
70982;BME280;58640;51.320;9.456;2023-03-03T01:13:32;99944.06;;;-0.02;94.77
70982;BME280;58640;51.320;9.456;2023-03-03T01:15:59;99947.13;;;0.19;93.84
70982;BME280;58640;51.320;9.456;2023-03-03T01:18:26;99946.84;;;0.23;93.38
70982;BME280;58640;51.320;9.456;2023-03-03T01:20:51;99946.84;;;0.23;93.64
70982;BME280;58640;51.320;9.456;2023-03-03T01:23:16;99941.94;;;0.17;94.26
70982;BME280;58640;51.320;9.456;2023-03-03T01:25:42;99933.16;;;0.17;94.05
70982;BME280;58640;51.320;9.456;2023-03-03T01:28:08;99922.00;;;0.12;94.14
70982;BME280;58640;51.320;9.456;2023-03-03T01:30:33;99938.13;;;0.21;94.15
70982;BME280;58640;51.320;9.456;2023-03-03T01:32:58;99930.72;;;0.40;93.64
70982;BME280;58640;51.320;9.456;2023-03-03T01:35:24;99937.06;;;0.38;92.91
70982;BME280;58640;51.320;9.456;2023-03-03T01:37:49;99946.88;;;0.36;92.87
70982;BME280;58640;51.320;9.456;2023-03-03T01:40:21;99942.66;;;0.33;93.00
70982;BME280;58640;51.320;9.456;2023-03-03T01:42:46;99941.25;;;0.28;93.88
70982;BME280;58640;51.320;9.456;2023-03-03T01:48:16;99945.25;;;0.47;91.82
70982;BME280;58640;51.320;9.456;2023-03-03T01:50:56;99951.06;;;0.26;93.87
70982;BME280;58640;51.320;9.456;2023-03-03T01:53:33;99948.06;;;0.32;93.47
70982;BME280;58640;51.320;9.456;2023-03-03T01:56:01;99943.13;;;0.26;94.54
70982;BME280;58640;51.320;9.456;2023-03-03T01:58:29;99945.41;;;0.18;94.79
70982;BME280;58640;51.320;9.456;2023-03-03T02:01:01;99943.94;;;0.14;94.48
70982;BME280;58640;51.320;9.456;2023-03-03T02:03:28;99942.31;;;0.25;94.98
70982;BME280;58640;51.320;9.456;2023-03-03T02:05:59;99934.25;;;0.27;95.36
70982;BME280;58640;51.320;9.456;2023-03-03T02:08:33;99938.75;;;0.12;95.54
70982;BME280;58640;51.320;9.456;2023-03-03T02:11:01;99927.50;;;0.09;95.98
70982;BME280;58640;51.320;9.456;2023-03-03T02:13:27;99926.59;;;0.10;95.67
70982;BME280;58640;51.320;9.456;2023-03-03T02:15:52;99929.47;;;0.19;95.79
70982;BME280;58640;51.320;9.456;2023-03-03T02:18:18;99926.53;;;0.24;94.87
70982;BME280;58640;51.320;9.456;2023-03-03T02:20:52;99915.94;;;0.24;95.24
70982;BME280;58640;51.320;9.456;2023-03-03T02:26:12;99936.91;;;0.53;93.45
70982;BME280;58640;51.320;9.456;2023-03-03T02:28:39;99935.63;;;0.46;93.32
70982;BME280;58640;51.320;9.456;2023-03-03T02:31:10;99928.81;;;0.42;93.21
70982;BME280;58640;51.320;9.456;2023-03-03T02:33:40;99931.72;;;0.25;94.89
70982;BME280;58640;51.320;9.456;2023-03-03T02:36:08;99929.13;;;0.38;94.08
70982;BME280;58640;51.320;9.456;2023-03-03T02:44:08;99934.25;;;0.27;94.27
70982;BME280;58640;51.320;9.456;2023-03-03T02:46:37;99935.59;;;0.20;94.88
70982;BME280;58640;51.320;9.456;2023-03-03T02:49:04;99946.88;;;0.36;93.97
70982;BME280;58640;51.320;9.456;2023-03-03T02:51:30;99936.84;;;0.41;93.71
70982;BME280;58640;51.320;9.456;2023-03-03T02:53:55;99946.31;;;0.45;93.38
70982;BME280;58640;51.320;9.456;2023-03-03T02:56:21;99941.28;;;0.40;93.44
70982;BME280;58640;51.320;9.456;2023-03-03T02:58:47;99940.72;;;0.35;92.85
70982;BME280;58640;51.320;9.456;2023-03-03T03:01:13;99934.50;;;0.36;93.30
70982;BME280;58640;51.320;9.456;2023-03-03T03:03:38;99932.41;;;0.41;93.33
70982;BME280;58640;51.320;9.456;2023-03-03T03:06:04;99941.28;;;0.40;93.44
70982;BME280;58640;51.320;9.456;2023-03-03T03:08:30;99937.84;;;0.52;93.44
70982;BME280;58640;51.320;9.456;2023-03-03T03:10:55;99937.91;;;0.38;92.90
70982;BME280;58640;51.320;9.456;2023-03-03T03:13:24;99931.47;;;0.42;93.45
70982;BME280;58640;51.320;9.456;2023-03-03T03:15:50;99938.09;;;0.35;92.97
70982;BME280;58640;51.320;9.456;2023-03-03T03:18:16;99944.78;;;0.41;93.08
70982;BME280;58640;51.320;9.456;2023-03-03T03:20:41;99952.59;;;0.30;92.82
70982;BME280;58640;51.320;9.456;2023-03-03T03:23:07;99952.63;;;0.42;92.33
70982;BME280;58640;51.320;9.456;2023-03-03T03:25:33;99959.09;;;0.38;92.05
70982;BME280;58640;51.320;9.456;2023-03-03T03:27:58;99959.09;;;0.38;91.74
70982;BME280;58640;51.320;9.456;2023-03-03T03:30:24;99958.44;;;0.35;91.81
70982;BME280;58640;51.320;9.456;2023-03-03T03:32:49;99959.09;;;0.24;92.55
70982;BME280;58640;51.320;9.456;2023-03-03T03:35:15;99962.66;;;0.11;92.48
70982;BME280;58640;51.320;9.456;2023-03-03T03:37:42;99959.03;;;0.12;91.88
70982;BME280;58640;51.320;9.456;2023-03-03T03:40:08;99957.22;;;0.26;92.09
70982;BME280;58640;51.320;9.456;2023-03-03T03:42:34;99959.81;;;0.14;92.04
70982;BME280;58640;51.320;9.456;2023-03-03T03:44:59;99957.16;;;0.14;92.65
70982;BME280;58640;51.320;9.456;2023-03-03T03:47:24;99957.16;;;0.14;92.45
70982;BME280;58640;51.320;9.456;2023-03-03T03:49:50;99942.03;;;0.16;92.63
70982;BME280;58640;51.320;9.456;2023-03-03T03:52:15;99943.44;;;0.21;92.39
70982;BME280;58640;51.320;9.456;2023-03-03T03:54:40;99946.94;;;0.22;93.07
70982;BME280;58640;51.320;9.456;2023-03-03T03:57:06;99945.09;;;0.10;93.02
70982;BME280;58640;51.320;9.456;2023-03-03T03:59:31;99953.84;;;0.10;93.30
70982;BME280;58640;51.320;9.456;2023-03-03T04:01:56;99968.69;;;0.13;93.24
70982;BME280;58640;51.320;9.456;2023-03-03T04:04:22;99961.13;;;0.07;93.87
70982;BME280;58640;51.320;9.456;2023-03-03T04:06:47;99957.47;;;-0.19;94.58
70982;BME280;58640;51.320;9.456;2023-03-03T04:09:13;99966.84;;;-0.14;94.54
70982;BME280;58640;51.320;9.456;2023-03-03T04:11:38;99973.53;;;-0.08;94.18
70982;BME280;58640;51.320;9.456;2023-03-03T04:14:04;99968.88;;;-0.05;94.54
70982;BME280;58640;51.320;9.456;2023-03-03T04:16:29;99974.66;;;-0.12;94.23
70982;BME280;58640;51.320;9.456;2023-03-03T04:18:55;99973.16;;;-0.02;92.93
70982;BME280;58640;51.320;9.456;2023-03-03T04:21:20;99978.44;;;-0.02;92.57
70982;BME280;58640;51.320;9.456;2023-03-03T04:23:45;99979.56;;;-0.06;92.88
70982;BME280;58640;51.320;9.456;2023-03-03T04:26:11;99977.81;;;-0.20;93.34
70982;BME280;58640;51.320;9.456;2023-03-03T04:28:36;99975.25;;;-0.21;94.58
70982;BME280;58640;51.320;9.456;2023-03-03T04:31:02;99970.13;;;-0.10;93.79
70982;BME280;58640;51.320;9.456;2023-03-03T04:33:27;99973.34;;;-0.19;93.41
70982;BME280;58640;51.320;9.456;2023-03-03T04:35:52;99968.00;;;-0.18;93.65
70982;BME280;58640;51.320;9.456;2023-03-03T04:38:18;99968.81;;;-0.17;94.04
70982;BME280;58640;51.320;9.456;2023-03-03T04:40:43;99972.31;;;-0.17;94.25
70982;BME280;58640;51.320;9.456;2023-03-03T04:43:09;99966.38;;;-0.20;92.78
70982;BME280;58640;51.320;9.456;2023-03-03T04:45:35;99971.56;;;-0.19;93.54
70982;BME280;58640;51.320;9.456;2023-03-03T04:48:00;99972.41;;;-0.18;93.53
70982;BME280;58640;51.320;9.456;2023-03-03T04:50:26;99973.28;;;-0.18;93.98
70982;BME280;58640;51.320;9.456;2023-03-03T04:52:51;99976.56;;;-0.14;93.25
70982;BME280;58640;51.320;9.456;2023-03-03T04:55:17;99980.06;;;-0.14;93.53
70982;BME280;58640;51.320;9.456;2023-03-03T04:57:42;99976.72;;;-0.03;93.16
70982;BME280;58640;51.320;9.456;2023-03-03T05:00:09;99977.09;;;0.19;91.26
70982;BME280;58640;51.320;9.456;2023-03-03T05:02:37;99982.22;;;-0.06;92.24
70982;BME280;58640;51.320;9.456;2023-03-03T05:05:03;99969.88;;;-0.34;93.32
70982;BME280;58640;51.320;9.456;2023-03-03T05:07:28;99961.44;;;-0.12;92.86
70982;BME280;58640;51.320;9.456;2023-03-03T05:09:54;99969.22;;;-0.23;93.55
70982;BME280;58640;51.320;9.456;2023-03-03T05:12:19;99969.78;;;-0.18;93.37
70982;BME280;58640;51.320;9.456;2023-03-03T05:14:45;99990.44;;;-0.11;92.90
70982;BME280;58640;51.320;9.456;2023-03-03T05:17:10;99986.00;;;-0.10;93.10
70982;BME280;58640;51.320;9.456;2023-03-03T05:19:35;99994.31;;;-0.16;93.56
70982;BME280;58640;51.320;9.456;2023-03-03T05:22:01;99992.22;;;-0.39;94.54
70982;BME280;58640;51.320;9.456;2023-03-03T05:24:26;99991.66;;;-0.44;95.06
70982;BME280;58640;51.320;9.456;2023-03-03T05:26:52;99993.44;;;-0.45;95.30
70982;BME280;58640;51.320;9.456;2023-03-03T05:29:17;99997.63;;;-0.55;95.80
70982;BME280;58640;51.320;9.456;2023-03-03T05:31:43;99987.31;;;-0.59;96.44
70982;BME280;58640;51.320;9.456;2023-03-03T05:34:08;99998.53;;;-0.56;96.20
70982;BME280;58640;51.320;9.456;2023-03-03T05:36:33;100003.91;;;-0.57;96.38
70982;BME280;58640;51.320;9.456;2023-03-03T05:38:59;99997.22;;;-0.63;96.18
70982;BME280;58640;51.320;9.456;2023-03-03T05:41:24;99996.38;;;-0.49;95.50
70982;BME280;58640;51.320;9.456;2023-03-03T05:43:49;100008.47;;;-0.45;95.50
70982;BME280;58640;51.320;9.456;2023-03-03T05:46:15;100001.19;;;-0.56;95.97
70982;BME280;58640;51.320;9.456;2023-03-03T05:48:40;100009.88;;;-0.40;94.89
70982;BME280;58640;51.320;9.456;2023-03-03T05:51:06;100007.72;;;-0.47;95.33
70982;BME280;58640;51.320;9.456;2023-03-03T05:53:31;100005.94;;;-0.47;95.51
70982;BME280;58640;51.320;9.456;2023-03-03T05:55:56;100012.69;;;-0.71;96.92
70982;BME280;58640;51.320;9.456;2023-03-03T05:58:22;100002.81;;;-0.53;95.44
70982;BME280;58640;51.320;9.456;2023-03-03T06:00:47;100010.16;;;-0.44;93.82
70982;BME280;58640;51.320;9.456;2023-03-03T06:03:12;99999.00;;;-0.77;96.29
70982;BME280;58640;51.320;9.456;2023-03-03T06:05:38;99998.38;;;-0.96;97.74
70982;BME280;58640;51.320;9.456;2023-03-03T06:08:03;99999.69;;;-0.89;97.85
70982;BME280;58640;51.320;9.456;2023-03-03T06:10:29;100009.47;;;-0.76;97.18
70982;BME280;58640;51.320;9.456;2023-03-03T06:12:54;100003.88;;;-0.85;97.62
70982;BME280;58640;51.320;9.456;2023-03-03T06:15:22;100009.06;;;-0.84;98.65
70982;BME280;58640;51.320;9.456;2023-03-03T06:17:47;100017.41;;;-0.62;96.83
70982;BME280;58640;51.320;9.456;2023-03-03T06:20:12;100019.06;;;-0.75;97.42
70982;BME280;58640;51.320;9.456;2023-03-03T06:22:38;100024.34;;;-0.75;98.20
70982;BME280;58640;51.320;9.456;2023-03-03T06:25:03;100031.75;;;-0.66;97.52
70982;BME280;58640;51.320;9.456;2023-03-03T06:27:29;100035.81;;;-0.46;95.73
70982;BME280;58640;51.320;9.456;2023-03-03T06:29:54;100040.72;;;-0.54;96.54
70982;BME280;58640;51.320;9.456;2023-03-03T06:32:19;100042.53;;;-0.55;95.38
70982;BME280;58640;51.320;9.456;2023-03-03T06:34:45;100038.81;;;-0.66;96.05
70982;BME280;58640;51.320;9.456;2023-03-03T06:37:10;100040.00;;;-0.72;96.00
70982;BME280;58640;51.320;9.456;2023-03-03T06:39:35;100040.91;;;-0.57;95.64
70982;BME280;58640;51.320;9.456;2023-03-03T06:42:01;100038.63;;;-0.63;95.65
70982;BME280;58640;51.320;9.456;2023-03-03T06:44:26;100041.06;;;-0.74;96.44
70982;BME280;58640;51.320;9.456;2023-03-03T06:46:51;100043.41;;;-0.70;95.55
70982;BME280;58640;51.320;9.456;2023-03-03T06:49:17;100045.44;;;-0.59;96.28
70982;BME280;58640;51.320;9.456;2023-03-03T06:51:42;100046.97;;;-0.41;94.72
70982;BME280;58640;51.320;9.456;2023-03-03T06:54:18;100046.88;;;-0.40;94.46
70982;BME280;58640;51.320;9.456;2023-03-03T06:56:44;100052.16;;;-0.40;93.27
70982;BME280;58640;51.320;9.456;2023-03-03T06:59:13;100055.66;;;-0.39;92.99
70982;BME280;58640;51.320;9.456;2023-03-03T07:01:39;100052.81;;;-0.36;92.81
70982;BME280;58640;51.320;9.456;2023-03-03T07:04:24;100050.94;;;-0.34;93.46
70982;BME280;58640;51.320;9.456;2023-03-03T07:06:53;100061.13;;;-0.28;92.51
70982;BME280;58640;51.320;9.456;2023-03-03T07:09:28;100058.88;;;-0.48;94.81
70982;BME280;58640;51.320;9.456;2023-03-03T07:12:00;100059.34;;;-0.28;93.87
70982;BME280;58640;51.320;9.456;2023-03-03T07:14:26;100063.59;;;-0.25;92.95
70982;BME280;58640;51.320;9.456;2023-03-03T07:16:57;100065.22;;;-0.23;92.65
70982;BME280;58640;51.320;9.456;2023-03-03T07:21:56;100068.31;;;-0.30;93.46
70982;BME280;58640;51.320;9.456;2023-03-03T07:24:27;100069.75;;;-0.25;94.05
70982;BME280;58640;51.320;9.456;2023-03-03T07:26:57;100060.19;;;-0.41;93.97
70982;BME280;58640;51.320;9.456;2023-03-03T07:29:26;100071.22;;;-0.35;94.13
70982;BME280;58640;51.320;9.456;2023-03-03T07:31:57;100070.84;;;-0.29;94.06
70982;BME280;58640;51.320;9.456;2023-03-03T07:34:28;100076.03;;;-0.27;93.46
70982;BME280;58640;51.320;9.456;2023-03-03T07:36:58;100075.88;;;-0.24;93.76
70982;BME280;58640;51.320;9.456;2023-03-03T07:39:33;100086.38;;;-0.23;94.32
70982;BME280;58640;51.320;9.456;2023-03-03T07:44:43;100086.84;;;-0.16;92.93
70982;BME280;58640;51.320;9.456;2023-03-03T07:47:25;100093.34;;;-0.08;92.27
70982;BME280;58640;51.320;9.456;2023-03-03T07:49:54;100098.75;;;0.05;91.54
70982;BME280;58640;51.320;9.456;2023-03-03T07:52:39;100093.06;;;-0.03;92.33
70982;BME280;58640;51.320;9.456;2023-03-03T08:03:09;100102.25;;;0.20;90.76
70982;BME280;58640;51.320;9.456;2023-03-03T08:05:41;100106.97;;;0.00;91.37
70982;BME280;58640;51.320;9.456;2023-03-03T08:08:11;100109.78;;;-0.03;91.68
70982;BME280;58640;51.320;9.456;2023-03-03T08:10:49;100122.81;;;0.15;90.58
70982;BME280;58640;51.320;9.456;2023-03-03T08:13:22;100115.38;;;0.21;89.75
70982;BME280;58640;51.320;9.456;2023-03-03T08:15:50;100110.19;;;0.06;90.94
70982;BME280;58640;51.320;9.456;2023-03-03T08:18:27;100119.69;;;-0.06;91.98
70982;BME280;58640;51.320;9.456;2023-03-03T08:20:55;100118.97;;;0.20;90.56
70982;BME280;58640;51.320;9.456;2023-03-03T08:23:21;100120.75;;;0.20;90.85
70982;BME280;58640;51.320;9.456;2023-03-03T08:25:48;100116.91;;;0.25;91.20
70982;BME280;58640;51.320;9.456;2023-03-03T08:28:15;100120.13;;;0.30;90.67
70982;BME280;58640;51.320;9.456;2023-03-03T08:30:41;100131.53;;;0.31;91.29
70982;BME280;58640;51.320;9.456;2023-03-03T08:33:07;100128.69;;;0.48;89.89
70982;BME280;58640;51.320;9.456;2023-03-03T08:35:33;100130.28;;;0.50;90.51
70982;BME280;58640;51.320;9.456;2023-03-03T08:37:58;100129.06;;;0.56;90.61
70982;BME280;58640;51.320;9.456;2023-03-03T08:40:24;100125.63;;;0.68;89.08
70982;BME280;58640;51.320;9.456;2023-03-03T08:42:49;100129.34;;;0.65;88.61
70982;BME280;58640;51.320;9.456;2023-03-03T08:45:15;100126.06;;;0.48;89.41
70982;BME280;58640;51.320;9.456;2023-03-03T08:47:40;100132.28;;;0.47;89.60
70982;BME280;58640;51.320;9.456;2023-03-03T08:50:07;100127.06;;;0.59;88.65
70982;BME280;58640;51.320;9.456;2023-03-03T08:52:32;100132.16;;;0.76;88.01
70982;BME280;58640;51.320;9.456;2023-03-03T08:54:58;100129.41;;;0.78;87.75
70982;BME280;58640;51.320;9.456;2023-03-03T08:57:23;100125.34;;;0.72;88.59
70982;BME280;58640;51.320;9.456;2023-03-03T08:59:49;100128.09;;;0.71;89.34
70982;BME280;58640;51.320;9.456;2023-03-03T09:02:14;100130.53;;;0.74;89.20
70982;BME280;58640;51.320;9.456;2023-03-03T09:04:41;100135.78;;;0.88;87.70
70982;BME280;58640;51.320;9.456;2023-03-03T09:07:06;100144.03;;;0.83;87.38
70982;BME280;58640;51.320;9.456;2023-03-03T09:09:32;100136.00;;;0.85;86.54
70982;BME280;58640;51.320;9.456;2023-03-03T09:11:58;100134.50;;;0.81;87.66
70982;BME280;58640;51.320;9.456;2023-03-03T09:14:29;100129.09;;;0.82;88.25
70982;BME280;58640;51.320;9.456;2023-03-03T09:16:55;100131.00;;;0.80;88.91
70982;BME280;58640;51.320;9.456;2023-03-03T09:19:24;100149.50;;;0.94;88.08
70982;BME280;58640;51.320;9.456;2023-03-03T09:21:52;100138.88;;;1.08;86.81
70982;BME280;58640;51.320;9.456;2023-03-03T09:24:37;100142.75;;;0.76;87.74
70982;BME280;58640;51.320;9.456;2023-03-03T09:27:13;100134.09;;;0.87;87.29
70982;BME280;58640;51.320;9.456;2023-03-03T09:29:42;100132.06;;;1.04;86.07
70982;BME280;58640;51.320;9.456;2023-03-03T09:32:35;100138.69;;;1.11;85.39
70982;BME280;58640;51.320;9.456;2023-03-03T09:35:34;100143.03;;;1.12;85.69
70982;BME280;58640;51.320;9.456;2023-03-03T09:38:01;100142.81;;;1.15;86.16
70982;BME280;58640;51.320;9.456;2023-03-03T09:40:50;100137.22;;;1.20;85.34
70982;BME280;58640;51.320;9.456;2023-03-03T09:43:36;100144.84;;;1.38;85.21
70982;BME280;58640;51.320;9.456;2023-03-03T09:52:15;100145.66;;;1.66;84.45
70982;BME280;58640;51.320;9.456;2023-03-03T09:55:06;100158.50;;;1.72;82.57
70982;BME280;58640;51.320;9.456;2023-03-03T09:58:04;100157.25;;;1.90;82.24
70982;BME280;58640;51.320;9.456;2023-03-03T10:03:38;100150.59;;;1.58;82.51
70982;BME280;58640;51.320;9.456;2023-03-03T10:06:24;100166.84;;;1.66;82.50
70982;BME280;58640;51.320;9.456;2023-03-03T10:11:59;100159.56;;;1.69;82.90
70982;BME280;58640;51.320;9.456;2023-03-03T10:14:36;100164.41;;;1.36;83.58
70982;BME280;58640;51.320;9.456;2023-03-03T10:25:41;100165.44;;;1.60;82.93
70982;BME280;58640;51.320;9.456;2023-03-03T10:28:40;100162.81;;;1.73;82.22
70982;BME280;58640;51.320;9.456;2023-03-03T10:31:32;100152.44;;;1.70;81.35
70982;BME280;58640;51.320;9.456;2023-03-03T10:39:49;100159.25;;;1.86;80.00
70982;BME280;58640;51.320;9.456;2023-03-03T10:42:54;100162.94;;;1.84;81.31
70982;BME280;58640;51.320;9.456;2023-03-03T10:53:34;100164.91;;;2.07;79.25
70982;BME280;58640;51.320;9.456;2023-03-03T10:56:13;100170.09;;;2.33;77.93
70982;BME280;58640;51.320;9.456;2023-03-03T11:01:44;100168.41;;;2.45;77.28
70982;BME280;58640;51.320;9.456;2023-03-03T11:04:33;100176.94;;;2.37;76.83
70982;BME280;58640;51.320;9.456;2023-03-03T11:14:51;100170.53;;;2.27;79.29
70982;BME280;58640;51.320;9.456;2023-03-03T11:18:14;100165.34;;;2.38;78.76
70982;BME280;58640;51.320;9.456;2023-03-03T11:20:45;100165.56;;;2.10;79.59
70982;BME280;58640;51.320;9.456;2023-03-03T11:23:28;100168.22;;;2.10;79.86
70982;BME280;58640;51.320;9.456;2023-03-03T11:31:36;100164.91;;;2.07;80.24
70982;BME280;58640;51.320;9.456;2023-03-03T11:36:52;100164.28;;;2.41;79.84
70982;BME280;58640;51.320;9.456;2023-03-03T11:39:22;100162.91;;;2.10;79.87
70982;BME280;58640;51.320;9.456;2023-03-03T11:44:34;100159.06;;;2.02;80.13
70982;BME280;58640;51.320;9.456;2023-03-03T11:49:59;100156.09;;;2.19;79.55
70982;BME280;58640;51.320;9.456;2023-03-03T11:55:13;100138.69;;;2.40;78.69
70982;BME280;58640;51.320;9.456;2023-03-03T11:57:50;100148.56;;;2.25;79.50
70982;BME280;58640;51.320;9.456;2023-03-03T12:08:42;100140.47;;;2.64;77.04
70982;BME280;58640;51.320;9.456;2023-03-03T12:11:20;100136.22;;;2.49;77.16
70982;BME280;58640;51.320;9.456;2023-03-03T12:14:04;100129.56;;;2.92;75.58
70982;BME280;58640;51.320;9.456;2023-03-03T12:16:55;100130.88;;;2.74;76.01
70982;BME280;58640;51.320;9.456;2023-03-03T12:19:43;100127.22;;;2.52;77.17
70982;BME280;58640;51.320;9.456;2023-03-03T12:22:41;100129.53;;;2.56;78.20
70982;BME280;58640;51.320;9.456;2023-03-03T12:27:38;100125.84;;;2.82;76.55
70982;BME280;58640;51.320;9.456;2023-03-03T12:30:25;100124.75;;;2.97;76.01
70982;BME280;58640;51.320;9.456;2023-03-03T12:35:55;100113.50;;;3.18;75.36
70982;BME280;58640;51.320;9.456;2023-03-03T12:38:34;100120.84;;;2.90;75.56
70982;BME280;58640;51.320;9.456;2023-03-03T12:41:36;100115.03;;;2.73;75.76
70982;BME280;58640;51.320;9.456;2023-03-03T12:44:19;100105.16;;;2.75;76.36
70982;BME280;58640;51.320;9.456;2023-03-03T12:47:26;100109.50;;;2.88;76.26
70982;BME280;58640;51.320;9.456;2023-03-03T12:53:11;100111.47;;;2.61;77.01
70982;BME280;58640;51.320;9.456;2023-03-03T12:55:52;100102.72;;;2.72;77.80
70982;BME280;58640;51.320;9.456;2023-03-03T12:58:44;100109.41;;;2.77;75.71
70982;BME280;58640;51.320;9.456;2023-03-03T13:01:47;100110.88;;;2.81;76.57
70982;BME280;58640;51.320;9.456;2023-03-03T13:15:20;100089.75;;;3.51;72.86
70982;BME280;58640;51.320;9.456;2023-03-03T13:21:23;100093.50;;;3.25;73.92
70982;BME280;58640;51.320;9.456;2023-03-03T13:24:01;100088.81;;;3.28;75.10
70982;BME280;58640;51.320;9.456;2023-03-03T13:26:39;100099.94;;;3.33;73.24
70982;BME280;58640;51.320;9.456;2023-03-03T13:31:47;100092.69;;;3.35;73.74
70982;BME280;58640;51.320;9.456;2023-03-03T13:34:22;100094.63;;;3.33;73.73
70982;BME280;58640;51.320;9.456;2023-03-03T13:36:53;100090.59;;;3.62;72.25
70982;BME280;58640;51.320;9.456;2023-03-03T13:39:33;100094.13;;;3.63;72.92
70982;BME280;58640;51.320;9.456;2023-03-03T13:42:07;100091.94;;;3.57;72.98
70982;BME280;58640;51.320;9.456;2023-03-03T13:44:41;100095.41;;;3.46;73.46
70982;BME280;58640;51.320;9.456;2023-03-03T13:47:15;100088.78;;;3.52;72.81
70982;BME280;58640;51.320;9.456;2023-03-03T13:50:02;100084.50;;;3.38;73.59
70982;BME280;58640;51.320;9.456;2023-03-03T13:52:32;100089.53;;;3.30;73.38
70982;BME280;58640;51.320;9.456;2023-03-03T13:55:16;100089.69;;;3.16;74.45
70982;BME280;58640;51.320;9.456;2023-03-03T13:57:50;100079.22;;;3.26;74.29
70982;BME280;58640;51.320;9.456;2023-03-03T14:01:25;100081.88;;;3.49;72.61
70982;BME280;58640;51.320;9.456;2023-03-03T14:06:13;100069.53;;;3.14;74.17
70982;BME280;58640;51.320;9.456;2023-03-03T14:11:16;100071.91;;;3.40;72.60
70982;BME280;58640;51.320;9.456;2023-03-03T14:13:48;100084.38;;;3.40;72.76
70982;BME280;58640;51.320;9.456;2023-03-03T14:16:56;100078.06;;;3.30;73.70
70982;BME280;58640;51.320;9.456;2023-03-03T14:24:23;100066.78;;;3.26;74.83
70982;BME280;58640;51.320;9.456;2023-03-03T14:26:54;100070.63;;;2.98;75.32
70982;BME280;58640;51.320;9.456;2023-03-03T14:29:30;100066.94;;;3.01;74.63
70982;BME280;58640;51.320;9.456;2023-03-03T14:31:58;100068.84;;;2.75;76.48
70982;BME280;58640;51.320;9.456;2023-03-03T14:37:18;100061.91;;;3.09;75.67
70982;BME280;58640;51.320;9.456;2023-03-03T14:39:49;100070.66;;;3.22;73.95
70982;BME280;58640;51.320;9.456;2023-03-03T14:42:32;100061.25;;;3.29;74.31
70982;BME280;58640;51.320;9.456;2023-03-03T14:44:59;100052.75;;;3.24;74.90
70982;BME280;58640;51.320;9.456;2023-03-03T14:47:26;100048.31;;;2.77;75.58
70982;BME280;58640;51.320;9.456;2023-03-03T14:49:54;100054.66;;;3.11;75.28
70982;BME280;58640;51.320;9.456;2023-03-03T14:52:26;100051.03;;;2.88;76.20
70982;BME280;58640;51.320;9.456;2023-03-03T14:54:57;100051.91;;;2.76;76.47
70982;BME280;58640;51.320;9.456;2023-03-03T15:03:04;100031.00;;;2.72;77.19
70982;BME280;58640;51.320;9.456;2023-03-03T15:05:49;100027.31;;;2.62;76.95
70982;BME280;58640;51.320;9.456;2023-03-03T15:08:23;100034.41;;;2.97;75.43
70982;BME280;58640;51.320;9.456;2023-03-03T15:10:51;100026.84;;;2.57;77.46
70982;BME280;58640;51.320;9.456;2023-03-03T15:16:10;100026.13;;;2.30;79.20
70982;BME280;58640;51.320;9.456;2023-03-03T15:21:28;100022.94;;;2.73;76.58
70982;BME280;58640;51.320;9.456;2023-03-03T15:24:24;100018.66;;;2.47;77.65
70982;BME280;58640;51.320;9.456;2023-03-03T15:27:07;100026.47;;;2.25;79.68
70982;BME280;58640;51.320;9.456;2023-03-03T15:29:40;100018.88;;;2.08;80.40
70982;BME280;58640;51.320;9.456;2023-03-03T15:32:23;100021.00;;;1.91;81.42
70982;BME280;58640;51.320;9.456;2023-03-03T15:35:06;100025.69;;;1.75;82.41
70982;BME280;58640;51.320;9.456;2023-03-03T15:37:44;100020.91;;;1.67;83.03
70982;BME280;58640;51.320;9.456;2023-03-03T15:40:34;100024.63;;;1.90;81.65
70982;BME280;58640;51.320;9.456;2023-03-03T15:48:26;100005.53;;;1.85;81.65
70982;BME280;58640;51.320;9.456;2023-03-03T15:53:56;100015.19;;;1.61;83.00
70982;BME280;58640;51.320;9.456;2023-03-03T15:56:41;100015.84;;;1.52;83.69
70982;BME280;58640;51.320;9.456;2023-03-03T16:04:38;100018.38;;;1.66;83.88
70982;BME280;58640;51.320;9.456;2023-03-03T16:07:29;100011.56;;;1.49;85.26